sensor_id;sensor_type;location;lat;lon;timestamp;pressure;altitude;pressure_sealevel;temperature;humidity
55540;BME280;41384;51.418;7.286;2022-11-15T00:01:44;99197.09;;;10.21;100.00
55540;BME280;41384;51.418;7.286;2022-11-15T00:04:10;99201.28;;;10.29;100.00
55540;BME280;41384;51.418;7.286;2022-11-15T00:06:35;99193.81;;;10.26;100.00
55540;BME280;41384;51.418;7.286;2022-11-15T00:09:01;99191.31;;;10.31;100.00
55540;BME280;41384;51.418;7.286;2022-11-15T00:11:26;99197.81;;;10.28;100.00
55540;BME280;41384;51.418;7.286;2022-11-15T00:13:55;99186.25;;;10.29;100.00
55540;BME280;41384;51.418;7.286;2022-11-15T00:16:21;99186.19;;;10.36;100.00
55540;BME280;41384;51.418;7.286;2022-11-15T00:18:46;99187.38;;;10.40;100.00
55540;BME280;41384;51.418;7.286;2022-11-15T00:21:12;99184.44;;;10.48;100.00
55540;BME280;41384;51.418;7.286;2022-11-15T00:23:38;99174.34;;;10.45;100.00
55540;BME280;41384;51.418;7.286;2022-11-15T00:26:04;99186.84;;;10.50;100.00
55540;BME280;41384;51.418;7.286;2022-11-15T00:28:29;99191.81;;;10.58;100.00
55540;BME280;41384;51.418;7.286;2022-11-15T00:31:03;99191.63;;;10.60;100.00
55540;BME280;41384;51.418;7.286;2022-11-15T00:33:29;99190.97;;;10.64;100.00
55540;BME280;41384;51.418;7.286;2022-11-15T00:36:06;99183.84;;;10.65;100.00
55540;BME280;41384;51.418;7.286;2022-11-15T00:38:37;99187.75;;;10.62;100.00
55540;BME280;41384;51.418;7.286;2022-11-15T00:41:05;99179.72;;;10.69;100.00
55540;BME280;41384;51.418;7.286;2022-11-15T00:43:31;99180.69;;;10.75;100.00
55540;BME280;41384;51.418;7.286;2022-11-15T00:45:56;99182.88;;;10.78;100.00
55540;BME280;41384;51.418;7.286;2022-11-15T00:48:22;99181.41;;;10.82;100.00
55540;BME280;41384;51.418;7.286;2022-11-15T00:50:48;99178.03;;;10.75;100.00
55540;BME280;41384;51.418;7.286;2022-11-15T00:53:13;99178.03;;;10.75;100.00
55540;BME280;41384;51.418;7.286;2022-11-15T00:55:38;99181.91;;;10.72;100.00
55540;BME280;41384;51.418;7.286;2022-11-15T00:58:04;99176.44;;;10.74;100.00
55540;BME280;41384;51.418;7.286;2022-11-15T01:00:29;99178.97;;;10.80;100.00
55540;BME280;41384;51.418;7.286;2022-11-15T01:02:54;99180.50;;;10.88;100.00
55540;BME280;41384;51.418;7.286;2022-11-15T01:05:20;99180.56;;;10.82;100.00
55540;BME280;41384;51.418;7.286;2022-11-15T01:07:45;99186.44;;;10.84;100.00
55540;BME280;41384;51.418;7.286;2022-11-15T01:10:11;99186.81;;;10.87;100.00
55540;BME280;41384;51.418;7.286;2022-11-15T01:12:36;99180.50;;;10.88;100.00
55540;BME280;41384;51.418;7.286;2022-11-15T01:15:03;99181.88;;;10.91;100.00
55540;BME280;41384;51.418;7.286;2022-11-15T01:17:29;99193.91;;;10.87;100.00
55540;BME280;41384;51.418;7.286;2022-11-15T01:19:55;99183.03;;;10.95;100.00
55540;BME280;41384;51.418;7.286;2022-11-15T01:22:20;99180.41;;;10.95;100.00
55540;BME280;41384;51.418;7.286;2022-11-15T01:24:45;99184.53;;;10.91;100.00
55540;BME280;41384;51.418;7.286;2022-11-15T01:27:11;99187.16;;;10.91;100.00
55540;BME280;41384;51.418;7.286;2022-11-15T01:29:36;99173.06;;;10.97;100.00
55540;BME280;41384;51.418;7.286;2022-11-15T01:32:01;99181.94;;;11.03;100.00
55540;BME280;41384;51.418;7.286;2022-11-15T01:34:27;99174.31;;;10.94;100.00
55540;BME280;41384;51.418;7.286;2022-11-15T01:36:52;99170.88;;;10.94;100.00
55540;BME280;41384;51.418;7.286;2022-11-15T01:39:17;99164.09;;;10.98;100.00
55540;BME280;41384;51.418;7.286;2022-11-15T01:41:43;99152.97;;;10.96;100.00
55540;BME280;41384;51.418;7.286;2022-11-15T01:46:56;99158.94;;;11.03;100.00
55540;BME280;41384;51.418;7.286;2022-11-15T01:49:23;99157.06;;;11.11;100.00
55540;BME280;41384;51.418;7.286;2022-11-15T01:51:48;99144.31;;;11.07;100.00
55540;BME280;41384;51.418;7.286;2022-11-15T01:54:17;99136.50;;;11.13;100.00
55540;BME280;41384;51.418;7.286;2022-11-15T01:56:53;99135.78;;;11.05;100.00
55540;BME280;41384;51.418;7.286;2022-11-15T01:59:21;99139.00;;;11.07;100.00
55540;BME280;41384;51.418;7.286;2022-11-15T02:01:47;99145.16;;;11.01;100.00
55540;BME280;41384;51.418;7.286;2022-11-15T02:04:24;99146.50;;;11.11;100.00
55540;BME280;41384;51.418;7.286;2022-11-15T02:06:50;99142.34;;;11.15;100.00
55540;BME280;41384;51.418;7.286;2022-11-15T02:09:16;99142.47;;;11.20;100.00
55540;BME280;41384;51.418;7.286;2022-11-15T02:11:43;99137.19;;;11.20;100.00
55540;BME280;41384;51.418;7.286;2022-11-15T02:14:10;99143.72;;;11.17;100.00
55540;BME280;41384;51.418;7.286;2022-11-15T02:17:05;99136.03;;;11.16;100.00
55540;BME280;41384;51.418;7.286;2022-11-15T02:22:11;99131.91;;;11.20;100.00
55540;BME280;41384;51.418;7.286;2022-11-15T02:24:54;99135.34;;;11.20;100.00
55540;BME280;41384;51.418;7.286;2022-11-15T02:33:26;99130.19;;;11.14;100.00
55540;BME280;41384;51.418;7.286;2022-11-15T02:36:15;99136.03;;;11.16;100.00
55540;BME280;41384;51.418;7.286;2022-11-15T02:39:01;99139.72;;;11.15;100.00
55540;BME280;41384;51.418;7.286;2022-11-15T02:41:35;99134.56;;;11.20;100.00
55540;BME280;41384;51.418;7.286;2022-11-15T02:44:18;99132.25;;;11.12;100.00
55540;BME280;41384;51.418;7.286;2022-11-15T02:46:51;99125.94;;;11.13;100.00
55540;BME280;41384;51.418;7.286;2022-11-15T02:49:39;99119.16;;;11.17;100.00
55540;BME280;41384;51.418;7.286;2022-11-15T02:52:06;99113.88;;;11.17;100.00
55540;BME280;41384;51.418;7.286;2022-11-15T02:54:33;99118.00;;;11.13;100.00
55540;BME280;41384;51.418;7.286;2022-11-15T02:57:02;99109.97;;;11.07;100.00
55540;BME280;41384;51.418;7.286;2022-11-15T03:00:01;99107.09;;;11.09;100.00
55540;BME280;41384;51.418;7.286;2022-11-15T03:05:13;99117.09;;;11.19;100.00
55540;BME280;41384;51.418;7.286;2022-11-15T03:07:58;99107.69;;;11.23;100.00
55540;BME280;41384;51.418;7.286;2022-11-15T03:10:32;99109.06;;;11.14;100.00
55540;BME280;41384;51.418;7.286;2022-11-15T03:15:44;99117.44;;;11.22;100.00
55540;BME280;41384;51.418;7.286;2022-11-15T03:18:21;99111.69;;;11.26;100.00
55540;BME280;41384;51.418;7.286;2022-11-15T03:20:48;99107.69;;;11.23;100.00
55540;BME280;41384;51.418;7.286;2022-11-15T03:23:14;99119.03;;;11.23;100.00
55540;BME280;41384;51.418;7.286;2022-11-15T03:25:42;99109.06;;;11.26;100.00
55540;BME280;41384;51.418;7.286;2022-11-15T03:28:11;99124.25;;;11.30;100.00
55540;BME280;41384;51.418;7.286;2022-11-15T03:30:38;99125.59;;;11.33;100.00
55540;BME280;41384;51.418;7.286;2022-11-15T03:33:05;99130.88;;;11.33;100.00
55540;BME280;41384;51.418;7.286;2022-11-15T03:35:37;99124.94;;;11.37;100.00
55540;BME280;41384;51.418;7.286;2022-11-15T03:38:11;99120.44;;;11.38;100.00
55540;BME280;41384;51.418;7.286;2022-11-15T03:40:41;99115.97;;;11.38;100.00
55540;BME280;41384;51.418;7.286;2022-11-15T03:45:42;99117.59;;;11.39;100.00
55540;BME280;41384;51.418;7.286;2022-11-15T03:48:13;99111.72;;;11.37;100.00
55540;BME280;41384;51.418;7.286;2022-11-15T03:50:39;99114.81;;;11.34;100.00
55540;BME280;41384;51.418;7.286;2022-11-15T03:53:06;99110.44;;;11.40;100.00
55540;BME280;41384;51.418;7.286;2022-11-15T03:55:32;99104.94;;;11.42;100.00
55540;BME280;41384;51.418;7.286;2022-11-15T03:57:59;99102.41;;;11.35;100.00
55540;BME280;41384;51.418;7.286;2022-11-15T04:00:26;99107.47;;;11.36;100.00
55540;BME280;41384;51.418;7.286;2022-11-15T04:02:51;99104.50;;;11.45;100.00
55540;BME280;41384;51.418;7.286;2022-11-15T04:05:17;99103.34;;;11.41;100.00
55540;BME280;41384;51.418;7.286;2022-11-15T04:07:42;99094.72;;;11.33;100.00
55540;BME280;41384;51.418;7.286;2022-11-15T04:10:09;99090.22;;;11.34;100.00
55540;BME280;41384;51.418;7.286;2022-11-15T04:12:37;99088.97;;;11.36;100.00
55540;BME280;41384;51.418;7.286;2022-11-15T04:15:04;99093.56;;;11.41;100.00
55540;BME280;41384;51.418;7.286;2022-11-15T04:17:40;99091.63;;;11.36;100.00
55540;BME280;41384;51.418;7.286;2022-11-15T04:20:09;99088.28;;;11.41;100.00
55540;BME280;41384;51.418;7.286;2022-11-15T04:22:55;99092.66;;;11.35;100.00
55540;BME280;41384;51.418;7.286;2022-11-15T04:25:40;99088.97;;;11.36;100.00
55540;BME280;41384;51.418;7.286;2022-11-15T04:28:06;99093.56;;;11.41;100.00
55540;BME280;41384;51.418;7.286;2022-11-15T04:30:31;99089.09;;;11.42;100.00
55540;BME280;41384;51.418;7.286;2022-11-15T04:32:57;99083.81;;;11.42;100.00
55540;BME280;41384;51.418;7.286;2022-11-15T04:35:22;99092.31;;;11.44;100.00
55540;BME280;41384;51.418;7.286;2022-11-15T04:37:47;99097.34;;;11.45;100.00
55540;BME280;41384;51.418;7.286;2022-11-15T04:40:12;99100.44;;;11.42;100.00
55540;BME280;41384;51.418;7.286;2022-11-15T04:42:40;99094.13;;;11.43;100.00
55540;BME280;41384;51.418;7.286;2022-11-15T04:45:07;99094.50;;;11.47;100.00
55540;BME280;41384;51.418;7.286;2022-11-15T04:47:32;99085.88;;;11.51;100.00
55540;BME280;41384;51.418;7.286;2022-11-15T04:49:57;99081.28;;;11.47;100.00
55540;BME280;41384;51.418;7.286;2022-11-15T04:52:22;99084.28;;;11.50;100.00
55540;BME280;41384;51.418;7.286;2022-11-15T04:54:48;99086.47;;;11.53;100.00
55540;BME280;41384;51.418;7.286;2022-11-15T04:57:13;99090.13;;;11.52;100.00
55540;BME280;41384;51.418;7.286;2022-11-15T04:59:39;99087.25;;;11.54;100.00
55540;BME280;41384;51.418;7.286;2022-11-15T05:02:04;99086.09;;;11.50;100.00
55540;BME280;41384;51.418;7.286;2022-11-15T05:04:29;99093.34;;;11.55;100.00
55540;BME280;41384;51.418;7.286;2022-11-15T05:06:54;99082.53;;;11.56;100.00
55540;BME280;41384;51.418;7.286;2022-11-15T05:09:20;99088.06;;;11.55;100.00
55540;BME280;41384;51.418;7.286;2022-11-15T05:11:46;99084.59;;;11.54;100.00
55540;BME280;41384;51.418;7.286;2022-11-15T05:14:12;99076.22;;;11.45;100.00
55540;BME280;41384;51.418;7.286;2022-11-15T05:16:37;99066.09;;;11.54;100.00
55540;BME280;41384;51.418;7.286;2022-11-15T05:19:03;99080.13;;;11.55;100.00
55540;BME280;41384;51.418;7.286;2022-11-15T05:21:29;99080.59;;;11.51;100.00
55540;BME280;41384;51.418;7.286;2022-11-15T05:23:54;99081.63;;;11.50;100.00
55540;BME280;41384;51.418;7.286;2022-11-15T05:26:19;99079.66;;;11.46;100.00
55540;BME280;41384;51.418;7.286;2022-11-15T05:28:44;99075.19;;;11.46;100.00
55540;BME280;41384;51.418;7.286;2022-11-15T05:31:13;99083.56;;;11.55;100.00
55540;BME280;41384;51.418;7.286;2022-11-15T05:33:40;99081.75;;;11.56;100.00
55540;BME280;41384;51.418;7.286;2022-11-15T05:36:28;99073.00;;;11.55;100.00
55540;BME280;41384;51.418;7.286;2022-11-15T05:38:54;99070.34;;;11.55;100.00
55540;BME280;41384;51.418;7.286;2022-11-15T05:41:25;99073.34;;;11.59;100.00
55540;BME280;41384;51.418;7.286;2022-11-15T05:43:52;99071.63;;;11.64;100.00
55540;BME280;41384;51.418;7.286;2022-11-15T05:46:18;99065.28;;;11.65;100.00
55540;BME280;41384;51.418;7.286;2022-11-15T05:48:46;99068.41;;;11.62;100.00
55540;BME280;41384;51.418;7.286;2022-11-15T05:51:14;99067.97;;;11.53;100.00
55540;BME280;41384;51.418;7.286;2022-11-15T05:53:41;99066.34;;;11.52;100.00
55540;BME280;41384;51.418;7.286;2022-11-15T05:56:06;99066.94;;;11.55;100.00
55540;BME280;41384;51.418;7.286;2022-11-15T05:58:33;99071.38;;;11.54;100.00
55540;BME280;41384;51.418;7.286;2022-11-15T06:01:00;99073.00;;;11.55;100.00
55540;BME280;41384;51.418;7.286;2022-11-15T06:03:25;99067.50;;;11.57;100.00
55540;BME280;41384;51.418;7.286;2022-11-15T06:05:50;99080.03;;;11.49;100.00
55540;BME280;41384;51.418;7.286;2022-11-15T06:08:16;99075.19;;;11.58;100.00
55540;BME280;41384;51.418;7.286;2022-11-15T06:10:41;99073.81;;;11.56;100.00
55540;BME280;41384;51.418;7.286;2022-11-15T06:13:06;99076.47;;;11.56;100.00
55540;BME280;41384;51.418;7.286;2022-11-15T06:15:32;99080.94;;;11.55;100.00
55540;BME280;41384;51.418;7.286;2022-11-15T06:17:59;99077.81;;;11.58;100.00
55540;BME280;41384;51.418;7.286;2022-11-15T06:20:25;99090.34;;;11.63;100.00
55540;BME280;41384;51.418;7.286;2022-11-15T06:22:56;99088.75;;;11.62;100.00
55540;BME280;41384;51.418;7.286;2022-11-15T06:25:21;99082.66;;;11.61;100.00
55540;BME280;41384;51.418;7.286;2022-11-15T06:27:53;99088.97;;;11.60;100.00
55540;BME280;41384;51.418;7.286;2022-11-15T06:30:20;99088.28;;;11.65;100.00
55540;BME280;41384;51.418;7.286;2022-11-15T06:32:45;99097.47;;;11.62;100.00
55540;BME280;41384;51.418;7.286;2022-11-15T06:35:11;99101.03;;;11.68;100.00
55540;BME280;41384;51.418;7.286;2022-11-15T06:37:36;99097.13;;;11.71;100.00
55540;BME280;41384;51.418;7.286;2022-11-15T06:40:01;99100.47;;;11.66;100.00
55540;BME280;41384;51.418;7.286;2022-11-15T06:42:26;99101.72;;;11.63;100.00
55540;BME280;41384;51.418;7.286;2022-11-15T06:44:52;99105.28;;;11.69;100.00
55540;BME280;41384;51.418;7.286;2022-11-15T06:47:17;99102.41;;;11.71;100.00
55540;BME280;41384;51.418;7.286;2022-11-15T06:49:42;99118.94;;;11.78;100.00
55540;BME280;41384;51.418;7.286;2022-11-15T06:52:07;99110.00;;;11.67;100.00
55540;BME280;41384;51.418;7.286;2022-11-15T06:54:33;99121.47;;;11.73;100.00
55540;BME280;41384;51.418;7.286;2022-11-15T06:56:58;99120.22;;;11.75;100.00
55540;BME280;41384;51.418;7.286;2022-11-15T06:59:23;99123.56;;;11.82;100.00
55540;BME280;41384;51.418;7.286;2022-11-15T07:01:49;99126.31;;;11.88;100.00
55540;BME280;41384;51.418;7.286;2022-11-15T07:04:14;99132.53;;;11.93;100.00
55540;BME280;41384;51.418;7.286;2022-11-15T07:06:39;99131.81;;;11.86;100.00
55540;BME280;41384;51.418;7.286;2022-11-15T07:09:05;99128.59;;;11.84;100.00
55540;BME280;41384;51.418;7.286;2022-11-15T07:11:30;99125.16;;;11.72;100.00
55540;BME280;41384;51.418;7.286;2022-11-15T07:13:55;99133.09;;;11.72;100.00
55540;BME280;41384;51.418;7.286;2022-11-15T07:16:20;99133.66;;;11.74;100.00
55540;BME280;41384;51.418;7.286;2022-11-15T07:18:46;99127.34;;;11.75;100.00
55540;BME280;41384;51.418;7.286;2022-11-15T07:21:11;99140.09;;;11.78;100.00
55540;BME280;41384;51.418;7.286;2022-11-15T07:23:38;99135.16;;;11.81;100.00
55540;BME280;41384;51.418;7.286;2022-11-15T07:26:04;99138.28;;;11.66;100.00
55540;BME280;41384;51.418;7.286;2022-11-15T07:28:29;99136.66;;;11.65;100.00
55540;BME280;41384;51.418;7.286;2022-11-15T07:30:55;99146.78;;;11.57;100.00
55540;BME280;41384;51.418;7.286;2022-11-15T07:33:20;99153.44;;;11.59;100.00
55540;BME280;41384;51.418;7.286;2022-11-15T07:35:46;99159.09;;;11.63;100.00
55540;BME280;41384;51.418;7.286;2022-11-15T07:38:14;99152.75;;;11.52;100.00
55540;BME280;41384;51.418;7.286;2022-11-15T07:40:40;99157.38;;;11.57;100.00
55540;BME280;41384;51.418;7.286;2022-11-15T07:43:06;99161.16;;;11.61;100.00
55540;BME280;41384;51.418;7.286;2022-11-15T07:45:32;99151.03;;;11.58;100.00
55540;BME280;41384;51.418;7.286;2022-11-15T07:47:59;99158.16;;;11.57;100.00
55540;BME280;41384;51.418;7.286;2022-11-15T07:50:26;99156.09;;;11.59;100.00
55540;BME280;41384;51.418;7.286;2022-11-15T07:52:55;99162.19;;;11.60;100.00
55540;BME280;41384;51.418;7.286;2022-11-15T07:55:22;99151.84;;;11.58;100.00
55540;BME280;41384;51.418;7.286;2022-11-15T07:57:47;99167.25;;;11.49;100.00
55540;BME280;41384;51.418;7.286;2022-11-15T08:00:13;99168.50;;;11.59;100.00
55540;BME280;41384;51.418;7.286;2022-11-15T08:02:38;99160.78;;;11.57;100.00
55540;BME280;41384;51.418;7.286;2022-11-15T08:05:04;99163.09;;;11.65;100.00
55540;BME280;41384;51.418;7.286;2022-11-15T08:07:30;99166.53;;;11.54;100.00
55540;BME280;41384;51.418;7.286;2022-11-15T08:09:56;99159.41;;;11.66;100.00
55540;BME280;41384;51.418;7.286;2022-11-15T08:12:22;99163.44;;;11.57;100.00
55540;BME280;41384;51.418;7.286;2022-11-15T08:14:47;99150.44;;;11.67;100.00
55540;BME280;41384;51.418;7.286;2022-11-15T08:17:13;99158.16;;;11.69;100.00
55540;BME280;41384;51.418;7.286;2022-11-15T08:19:38;99156.78;;;11.66;100.00
55540;BME280;41384;51.418;7.286;2022-11-15T08:22:04;99165.28;;;11.68;100.00
55540;BME280;41384;51.418;7.286;2022-11-15T08:24:29;99164.59;;;11.73;100.00
55540;BME280;41384;51.418;7.286;2022-11-15T08:26:54;99163.09;;;11.77;100.00
55540;BME280;41384;51.418;7.286;2022-11-15T08:29:20;99154.81;;;11.74;100.00
55540;BME280;41384;51.418;7.286;2022-11-15T08:31:45;99155.50;;;11.81;99.82
55540;BME280;41384;51.418;7.286;2022-11-15T08:34:10;99158.03;;;11.76;98.94
55540;BME280;41384;51.418;7.286;2022-11-15T08:36:35;99153.31;;;11.78;98.35
55540;BME280;41384;51.418;7.286;2022-11-15T08:39:01;99155.97;;;11.78;98.65
55540;BME280;41384;51.418;7.286;2022-11-15T08:41:30;99165.88;;;11.94;98.44
55540;BME280;41384;51.418;7.286;2022-11-15T08:43:56;99166.31;;;11.91;97.62
55540;BME280;41384;51.418;7.286;2022-11-15T08:46:21;99158.63;;;11.90;97.75
55540;BME280;41384;51.418;7.286;2022-11-15T08:48:47;99154.25;;;11.95;97.37
55540;BME280;41384;51.418;7.286;2022-11-15T08:51:12;99150.78;;;11.95;97.05
55540;BME280;41384;51.418;7.286;2022-11-15T08:53:37;99158.63;;;11.90;97.19
55540;BME280;41384;51.418;7.286;2022-11-15T08:56:02;99162.53;;;11.99;96.41
55540;BME280;41384;51.418;7.286;2022-11-15T08:58:31;99156.53;;;11.92;95.58
55540;BME280;41384;51.418;7.286;2022-11-15T09:00:56;99158.16;;;11.93;95.64
55540;BME280;41384;51.418;7.286;2022-11-15T09:03:22;99157.81;;;11.89;95.31
55540;BME280;41384;51.418;7.286;2022-11-15T09:05:47;99147.38;;;11.94;94.41
55540;BME280;41384;51.418;7.286;2022-11-15T09:08:12;99145.03;;;11.98;94.10
55540;BME280;41384;51.418;7.286;2022-11-15T09:10:38;99149.69;;;12.03;93.86
55540;BME280;41384;51.418;7.286;2022-11-15T09:13:03;99148.97;;;11.95;94.07
55540;BME280;41384;51.418;7.286;2022-11-15T09:15:28;99142.78;;;12.02;94.22
55540;BME280;41384;51.418;7.286;2022-11-15T09:17:58;99144.00;;;11.87;93.08
55540;BME280;41384;51.418;7.286;2022-11-15T09:20:23;99130.69;;;11.82;92.71
55540;BME280;41384;51.418;7.286;2022-11-15T09:22:48;99133.91;;;11.96;92.20
55540;BME280;41384;51.418;7.286;2022-11-15T09:25:14;99140.22;;;11.95;91.63
55540;BME280;41384;51.418;7.286;2022-11-15T09:27:39;99142.19;;;12.00;90.39
55540;BME280;41384;51.418;7.286;2022-11-15T09:30:05;99128.97;;;12.00;90.07
55540;BME280;41384;51.418;7.286;2022-11-15T09:32:30;99126.44;;;12.05;88.46
55540;BME280;41384;51.418;7.286;2022-11-15T09:34:56;99120.44;;;12.09;87.85
55540;BME280;41384;51.418;7.286;2022-11-15T09:37:21;99131.03;;;12.09;87.61
55540;BME280;41384;51.418;7.286;2022-11-15T09:39:46;99122.50;;;12.19;88.86
55540;BME280;41384;51.418;7.286;2022-11-15T09:45:10;99118.91;;;12.25;86.23
55540;BME280;41384;51.418;7.286;2022-11-15T09:50:42;99126.59;;;12.27;85.24
55540;BME280;41384;51.418;7.286;2022-11-15T09:53:13;99127.19;;;12.29;84.33
55540;BME280;41384;51.418;7.286;2022-11-15T09:56:00;99130.41;;;12.31;83.78
55540;BME280;41384;51.418;7.286;2022-11-15T09:58:34;99121.31;;;12.27;83.51
55540;BME280;41384;51.418;7.286;2022-11-15T10:01:06;99122.13;;;12.28;82.86
55540;BME280;41384;51.418;7.286;2022-11-15T10:03:38;99114.03;;;12.46;82.30
55540;BME280;41384;51.418;7.286;2022-11-15T10:06:10;99109.38;;;12.53;81.04
55540;BME280;41384;51.418;7.286;2022-11-15T10:11:27;99100.00;;;12.46;80.92
55540;BME280;41384;51.418;7.286;2022-11-15T10:13:56;99093.28;;;12.55;79.76
55540;BME280;41384;51.418;7.286;2022-11-15T10:16:51;99085.28;;;12.38;80.50
55540;BME280;41384;51.418;7.286;2022-11-15T10:19:54;99084.44;;;12.49;80.86
55540;BME280;41384;51.418;7.286;2022-11-15T10:22:28;99084.31;;;12.56;80.74
55540;BME280;41384;51.418;7.286;2022-11-15T10:27:43;99070.59;;;12.59;79.46
55540;BME280;41384;51.418;7.286;2022-11-15T10:30:15;99060.50;;;12.73;78.83
55540;BME280;41384;51.418;7.286;2022-11-15T10:32:42;99056.44;;;12.82;78.51
55540;BME280;41384;51.418;7.286;2022-11-15T10:35:36;99057.56;;;12.87;77.47
55540;BME280;41384;51.418;7.286;2022-11-15T10:38:10;99056.50;;;12.70;74.89
55540;BME280;41384;51.418;7.286;2022-11-15T10:40:37;99043.00;;;12.72;75.21
55540;BME280;41384;51.418;7.286;2022-11-15T10:45:34;99046.97;;;12.87;75.11
55540;BME280;41384;51.418;7.286;2022-11-15T10:50:38;99032.00;;;12.80;74.60
55540;BME280;41384;51.418;7.286;2022-11-15T10:53:13;99037.50;;;12.91;74.91
55540;BME280;41384;51.418;7.286;2022-11-15T10:55:46;99035.50;;;12.98;74.38
55540;BME280;41384;51.418;7.286;2022-11-15T10:58:32;99025.13;;;12.96;74.99
55540;BME280;41384;51.418;7.286;2022-11-15T11:01:12;99024.31;;;13.13;74.57
55540;BME280;41384;51.418;7.286;2022-11-15T11:03:39;99024.31;;;13.13;74.08
55540;BME280;41384;51.418;7.286;2022-11-15T11:06:12;99019.81;;;13.13;74.36
55540;BME280;41384;51.418;7.286;2022-11-15T11:08:38;99019.00;;;13.13;73.83
55540;BME280;41384;51.418;7.286;2022-11-15T11:11:04;99025.84;;;13.09;71.66
55540;BME280;41384;51.418;7.286;2022-11-15T11:13:33;99016.28;;;13.08;72.16
55540;BME280;41384;51.418;7.286;2022-11-15T11:18:33;99012.91;;;13.12;70.53
55540;BME280;41384;51.418;7.286;2022-11-15T11:21:08;99010.56;;;13.16;68.79
55540;BME280;41384;51.418;7.286;2022-11-15T11:23:54;99021.66;;;13.13;69.10
55540;BME280;41384;51.418;7.286;2022-11-15T11:35:01;98989.38;;;13.16;66.12
55540;BME280;41384;51.418;7.286;2022-11-15T11:37:55;98985.13;;;13.15;65.12
55540;BME280;41384;51.418;7.286;2022-11-15T11:51:32;98957.13;;;13.41;63.33
55540;BME280;41384;51.418;7.286;2022-11-15T11:54:04;98947.34;;;13.42;61.29
55540;BME280;41384;51.418;7.286;2022-11-15T11:56:37;98950.78;;;13.42;61.12
55540;BME280;41384;51.418;7.286;2022-11-15T11:59:22;98948.16;;;13.42;59.94
55540;BME280;41384;51.418;7.286;2022-11-15T12:01:50;98953.69;;;13.41;60.42
55540;BME280;41384;51.418;7.286;2022-11-15T12:04:21;98948.06;;;13.37;60.60
55540;BME280;41384;51.418;7.286;2022-11-15T12:06:59;98958.97;;;13.41;60.63
55540;BME280;41384;51.418;7.286;2022-11-15T12:09:32;98956.19;;;13.31;58.00
55540;BME280;41384;51.418;7.286;2022-11-15T12:12:12;98955.38;;;13.30;58.73
55540;BME280;41384;51.418;7.286;2022-11-15T12:14:54;98967.16;;;13.39;59.55
55540;BME280;41384;51.418;7.286;2022-11-15T12:17:25;98969.25;;;13.37;58.83
55540;BME280;41384;51.418;7.286;2022-11-15T12:19:56;98969.34;;;13.42;59.09
55540;BME280;41384;51.418;7.286;2022-11-15T12:22:28;98955.88;;;13.44;59.29
55540;BME280;41384;51.418;7.286;2022-11-15T12:25:28;98961.25;;;13.32;59.42
55540;BME280;41384;51.418;7.286;2022-11-15T12:31:01;98953.06;;;13.34;59.64
55540;BME280;41384;51.418;7.286;2022-11-15T12:36:00;98951.47;;;13.33;60.01
55540;BME280;41384;51.418;7.286;2022-11-15T12:38:52;98953.84;;;13.34;60.19
55540;BME280;41384;51.418;7.286;2022-11-15T12:41:20;98941.97;;;13.37;60.53
55540;BME280;41384;51.418;7.286;2022-11-15T12:43:47;98935.44;;;13.45;60.49
55540;BME280;41384;51.418;7.286;2022-11-15T12:46:21;98936.63;;;13.54;61.56
55540;BME280;41384;51.418;7.286;2022-11-15T12:48:52;98928.16;;;13.57;60.98
55540;BME280;41384;51.418;7.286;2022-11-15T12:52:08;98920.91;;;13.47;60.73
55540;BME280;41384;51.418;7.286;2022-11-15T13:02:46;98903.41;;;13.46;61.53
55540;BME280;41384;51.418;7.286;2022-11-15T13:13:40;98875.09;;;13.52;62.16
55540;BME280;41384;51.418;7.286;2022-11-15T13:15:45;98870.06;;;13.50;61.91
55540;BME280;41384;51.418;7.286;2022-11-15T13:18:31;98873.34;;;13.40;62.18
55540;BME280;41384;51.418;7.286;2022-11-15T13:20:57;98879.78;;;13.45;62.41
55540;BME280;41384;51.418;7.286;2022-11-15T13:23:22;98870.84;;;13.51;62.65
55540;BME280;41384;51.418;7.286;2022-11-15T13:31:27;98847.97;;;13.45;63.47
55540;BME280;41384;51.418;7.286;2022-11-15T13:33:57;98834.72;;;13.45;63.09
55540;BME280;41384;51.418;7.286;2022-11-15T13:36:28;98846.75;;;13.52;63.11
55540;BME280;41384;51.418;7.286;2022-11-15T13:41:26;98834.78;;;13.50;63.56
55540;BME280;41384;51.418;7.286;2022-11-15T13:43:53;98838.47;;;13.49;64.33
55540;BME280;41384;51.418;7.286;2022-11-15T13:46:26;98838.19;;;13.45;64.91
55540;BME280;41384;51.418;7.286;2022-11-15T13:49:07;98840.84;;;13.45;65.47
55540;BME280;41384;51.418;7.286;2022-11-15T13:51:52;98830.47;;;13.43;65.95
55540;BME280;41384;51.418;7.286;2022-11-15T13:54:56;98838.59;;;13.37;66.18
55540;BME280;41384;51.418;7.286;2022-11-15T13:57:35;98828.34;;;13.23;66.63
55540;BME280;41384;51.418;7.286;2022-11-15T14:00:19;98825.03;;;13.11;67.24
55540;BME280;41384;51.418;7.286;2022-11-15T14:02:49;98825.03;;;13.11;67.83
55540;BME280;41384;51.418;7.286;2022-11-15T14:05:20;98817.28;;;13.26;68.20
55540;BME280;41384;51.418;7.286;2022-11-15T14:08:01;98817.03;;;13.28;67.88
55540;BME280;41384;51.418;7.286;2022-11-15T14:10:30;98805.63;;;13.27;68.09
55540;BME280;41384;51.418;7.286;2022-11-15T14:12:56;98802.72;;;13.29;68.26
55540;BME280;41384;51.418;7.286;2022-11-15T14:17:52;98789.44;;;13.24;68.56
55540;BME280;41384;51.418;7.286;2022-11-15T14:20:34;98780.88;;;13.17;69.66
55540;BME280;41384;51.418;7.286;2022-11-15T14:23:23;98769.41;;;13.11;69.94
55540;BME280;41384;51.418;7.286;2022-11-15T14:25:57;98766.94;;;13.26;69.72
55540;BME280;41384;51.418;7.286;2022-11-15T14:30:48;98766.81;;;13.16;69.67
55540;BME280;41384;51.418;7.286;2022-11-15T14:33:28;98754.88;;;13.13;69.78
55540;BME280;41384;51.418;7.286;2022-11-15T14:35:55;98757.56;;;13.19;70.33
55540;BME280;41384;51.418;7.286;2022-11-15T14:38:25;98757.56;;;13.19;69.93